createdAt,value
2022-09-03T00:00:09.367Z,21.10
2022-09-03T00:03:08.712Z,21.10
2022-09-03T00:05:40.292Z,21.20
2022-09-03T00:08:30.946Z,21.10
2022-09-03T00:11:20.969Z,21.00
2022-09-03T00:13:58.966Z,20.90
2022-09-03T00:16:34.087Z,20.80
2022-09-03T00:19:04.097Z,20.90
2022-09-03T00:21:51.569Z,20.90
2022-09-03T00:24:47.821Z,20.80
2022-09-03T00:27:54.329Z,20.70
2022-09-03T00:31:33.001Z,20.60
2022-09-03T00:34:09.728Z,20.50
2022-09-03T00:36:42.507Z,20.40
2022-09-03T00:44:52.291Z,20.40
2022-09-03T00:47:45.392Z,20.40
2022-09-03T00:50:38.920Z,20.40
2022-09-03T00:53:24.518Z,20.50
2022-09-03T00:56:02.645Z,20.70
2022-09-03T00:58:54.988Z,20.90
2022-09-03T01:01:34.731Z,20.90
2022-09-03T01:04:28.622Z,20.90
2022-09-03T01:07:04.539Z,21.00
2022-09-03T01:09:48.162Z,20.80
2022-09-03T01:12:51.201Z,20.70
2022-09-03T01:15:26.756Z,20.60
2022-09-03T01:18:18.204Z,20.80
2022-09-03T01:20:45.446Z,20.90
2022-09-03T01:23:24.860Z,20.90
2022-09-03T01:26:18.320Z,20.80
2022-09-03T01:29:14.894Z,20.80
2022-09-03T01:32:21.292Z,20.80
2022-09-03T01:34:59.567Z,20.80
2022-09-03T01:37:46.605Z,20.60
2022-09-03T01:40:35.569Z,20.60
2022-09-03T01:43:11.303Z,20.50
2022-09-03T01:45:40.290Z,20.50
2022-09-03T01:48:32.210Z,20.50
2022-09-03T01:51:24.129Z,20.60
2022-09-03T01:54:35.043Z,20.70
2022-09-03T01:57:37.045Z,20.70
2022-09-03T02:00:16.347Z,20.70
2022-09-03T02:02:48.106Z,20.70
2022-09-03T02:05:19.419Z,20.50
2022-09-03T02:07:49.276Z,20.50
2022-09-03T02:10:19.801Z,20.50
2022-09-03T02:12:53.509Z,20.40
2022-09-03T02:15:23.394Z,20.30
2022-09-03T02:17:55.216Z,20.30
2022-09-03T02:20:24.132Z,20.30
2022-09-03T02:22:52.215Z,20.40
2022-09-03T02:25:19.252Z,20.40
2022-09-03T02:27:48.469Z,20.40
2022-09-03T02:30:15.615Z,20.40
2022-09-03T02:32:42.634Z,20.40
2022-09-03T02:35:10.642Z,20.40
2022-09-03T02:37:37.513Z,20.40
2022-09-03T02:40:10.296Z,20.40
2022-09-03T02:42:37.438Z,20.40
2022-09-03T02:45:25.125Z,20.30
2022-09-03T02:47:56.428Z,20.40
2022-09-03T02:50:23.987Z,20.60
2022-09-03T02:52:51.252Z,20.70
2022-09-03T02:55:19.572Z,20.80
2022-09-03T02:57:46.782Z,20.90
2022-09-03T03:00:14.610Z,20.80
2022-09-03T03:02:41.977Z,20.80
2022-09-03T03:05:13.464Z,20.90
2022-09-03T03:07:41.355Z,20.80
2022-09-03T03:10:08.936Z,20.70
2022-09-03T03:12:35.954Z,20.70
2022-09-03T03:15:02.997Z,20.70
2022-09-03T03:17:30.710Z,20.50
2022-09-03T03:19:57.563Z,20.50
2022-09-03T03:22:24.577Z,20.30
2022-09-03T03:24:52.681Z,20.20
2022-09-03T03:27:20.129Z,20.20
2022-09-03T03:29:47.095Z,20.30
2022-09-03T03:32:15.289Z,20.20
2022-09-03T03:34:42.200Z,20.30
2022-09-03T03:37:10.679Z,20.20
2022-09-03T03:39:37.665Z,20.20
2022-09-03T03:42:04.738Z,20.20
2022-09-03T03:44:32.415Z,20.20
2022-09-03T03:46:59.247Z,20.10
2022-09-03T03:49:26.109Z,20.20
2022-09-03T03:51:52.988Z,20.20
2022-09-03T03:54:21.038Z,20.20
2022-09-03T03:56:55.761Z,20.30
2022-09-03T03:59:23.106Z,20.30
2022-09-03T04:01:51.570Z,20.30
2022-09-03T04:04:18.442Z,20.20
2022-09-03T04:06:45.394Z,19.90
2022-09-03T04:09:12.333Z,19.90
2022-09-03T04:11:39.248Z,20.00
2022-09-03T04:14:06.216Z,19.90
2022-09-03T04:16:33.197Z,19.80
2022-09-03T04:19:00.241Z,19.80
2022-09-03T04:21:30.696Z,19.60
2022-09-03T04:23:58.529Z,19.60
2022-09-03T04:26:31.588Z,19.50
2022-09-03T04:29:05.224Z,19.50
2022-09-03T04:31:35.402Z,19.50
2022-09-03T04:34:02.630Z,19.40
2022-09-03T04:36:31.039Z,19.30
2022-09-03T04:39:00.201Z,19.20
2022-09-03T04:41:28.915Z,19.30
2022-09-03T04:43:58.414Z,19.10
2022-09-03T04:46:27.780Z,19.20
2022-09-03T04:48:55.441Z,19.30
2022-09-03T04:51:27.307Z,19.40
2022-09-03T04:53:57.691Z,19.50
2022-09-03T04:56:32.884Z,19.40
2022-09-03T04:59:02.451Z,19.40
2022-09-03T05:01:32.404Z,19.40
2022-09-03T05:04:00.727Z,19.50
2022-09-03T05:06:29.241Z,19.60
2022-09-03T05:08:57.321Z,19.70
2022-09-03T05:11:25.313Z,19.60
2022-09-03T05:13:55.511Z,19.70
2022-09-03T05:16:24.101Z,19.60
2022-09-03T05:19:01.835Z,19.50
2022-09-03T05:21:30.829Z,19.50
2022-09-03T05:24:00.213Z,19.60
2022-09-03T05:26:29.472Z,19.50
2022-09-03T05:28:58.991Z,19.40
2022-09-03T05:31:30.199Z,19.40
2022-09-03T05:34:01.560Z,19.40
2022-09-03T05:36:31.509Z,19.50
2022-09-03T05:38:59.302Z,19.60
2022-09-03T05:41:27.684Z,19.80
2022-09-03T05:43:56.147Z,19.80
2022-09-03T05:46:32.223Z,19.70
2022-09-03T05:49:06.745Z,19.80
2022-09-03T05:51:35.609Z,19.90
2022-09-03T05:54:03.940Z,20.10
2022-09-03T05:56:32.794Z,20.00
2022-09-03T05:59:01.935Z,20.20
2022-09-03T06:01:31.970Z,20.20
2022-09-03T06:04:00.178Z,20.10
2022-09-03T06:06:28.395Z,20.20
2022-09-03T06:08:58.122Z,20.20
2022-09-03T06:11:28.179Z,20.20
2022-09-03T06:14:07.166Z,20.30
2022-09-03T06:16:45.629Z,20.30
2022-09-03T06:19:14.516Z,20.20
2022-09-03T06:21:43.638Z,19.90
2022-09-03T06:24:27.870Z,19.80
2022-09-03T06:26:56.709Z,19.80
2022-09-03T06:29:23.654Z,19.80
2022-09-03T06:31:51.323Z,19.90
2022-09-03T06:34:22.670Z,19.90
2022-09-03T06:36:50.511Z,20.00
2022-09-03T06:39:17.479Z,20.00
2022-09-03T06:41:48.252Z,20.10
2022-09-03T06:44:15.322Z,20.10
2022-09-03T06:46:42.830Z,20.10
2022-09-03T06:49:11.410Z,20.00
2022-09-03T06:51:39.074Z,20.10
2022-09-03T06:54:10.433Z,20.20
2022-09-03T06:56:41.166Z,20.20
2022-09-03T06:59:11.391Z,20.20
2022-09-03T07:01:41.035Z,20.20
2022-09-03T07:04:12.926Z,20.20
2022-09-03T07:06:42.072Z,20.30
2022-09-03T07:09:10.468Z,20.40
2022-09-03T07:11:40.538Z,20.40
2022-09-03T07:14:08.108Z,20.50
2022-09-03T07:16:37.109Z,20.50
2022-09-03T07:19:05.380Z,20.60
2022-09-03T07:21:36.724Z,20.70
2022-09-03T07:24:05.759Z,20.60
2022-09-03T07:26:38.557Z,20.70
2022-09-03T07:29:08.008Z,20.80
2022-09-03T07:31:41.721Z,20.80
2022-09-03T07:34:11.656Z,21.00
2022-09-03T07:36:45.664Z,21.00
2022-09-03T07:39:14.169Z,21.00
2022-09-03T07:41:44.084Z,20.90
2022-09-03T07:44:11.998Z,20.90
2022-09-03T07:46:40.320Z,21.00
2022-09-03T07:49:07.601Z,21.00
2022-09-03T07:51:36.462Z,21.00
2022-09-03T07:54:06.999Z,20.90
2022-09-03T07:56:35.840Z,21.10
2022-09-03T07:59:03.461Z,21.10
2022-09-03T08:01:32.779Z,21.20
2022-09-03T08:04:01.087Z,21.40
2022-09-03T08:06:30.259Z,21.50
2022-09-03T08:09:06.508Z,21.60
2022-09-03T08:11:37.141Z,21.50
2022-09-03T08:14:12.016Z,21.40
2022-09-03T08:16:47.307Z,21.40
2022-09-03T08:19:18.170Z,21.20
2022-09-03T08:21:45.214Z,21.10
2022-09-03T08:24:14.604Z,21.10
2022-09-03T08:26:46.255Z,21.20
2022-09-03T08:29:18.723Z,21.50
2022-09-03T08:31:45.863Z,21.80
2022-09-03T08:34:14.620Z,22.00
2022-09-03T08:36:42.715Z,21.80
2022-09-03T08:39:11.527Z,21.90
2022-09-03T08:42:01.969Z,21.90
2022-09-03T08:44:49.259Z,21.70
2022-09-03T08:47:43.313Z,21.80
2022-09-03T08:50:25.246Z,21.80
2022-09-03T08:53:00.961Z,22.00
2022-09-03T08:55:36.306Z,22.00
2022-09-03T08:58:16.730Z,22.20
2022-09-03T09:01:01.579Z,22.40
2022-09-03T09:03:56.681Z,22.20
2022-09-03T09:06:47.968Z,22.10
2022-09-03T09:09:54.880Z,22.20
2022-09-03T09:12:48.177Z,22.30
2022-09-03T09:15:39.472Z,22.20
2022-09-03T09:18:24.952Z,22.40
2022-09-03T09:21:27.803Z,22.40
2022-09-03T09:24:03.955Z,22.50
2022-09-03T09:26:32.080Z,22.50
2022-09-03T09:29:11.438Z,22.30
2022-09-03T09:31:41.085Z,22.10
2022-09-03T09:34:09.657Z,22.20
2022-09-03T09:36:56.091Z,22.50
2022-09-03T09:39:23.833Z,22.80
2022-09-03T09:42:08.284Z,23.00
2022-09-03T09:44:40.766Z,23.10
2022-09-03T09:47:08.501Z,23.20
2022-09-03T09:49:37.301Z,23.20
2022-09-03T09:52:16.824Z,23.20
2022-09-03T09:54:48.349Z,23.20
2022-09-03T09:57:18.573Z,23.10
2022-09-03T09:59:49.569Z,23.00
2022-09-03T10:02:28.599Z,23.10
2022-09-03T10:05:24.242Z,23.00
2022-09-03T10:08:02.079Z,22.90
2022-09-03T10:10:32.944Z,23.20
2022-09-03T10:13:08.392Z,23.60
2022-09-03T10:15:55.940Z,23.80
2022-09-03T10:18:44.360Z,24.20
2022-09-03T10:21:32.832Z,24.30
2022-09-03T10:24:30.522Z,24.30
2022-09-03T10:26:58.430Z,24.30
2022-09-03T10:29:30.210Z,24.20
2022-09-03T10:32:25.619Z,24.40
2022-09-03T10:35:22.766Z,24.20
2022-09-03T10:38:03.303Z,24.60
2022-09-03T10:40:38.041Z,24.90
2022-09-03T10:43:07.755Z,25.10
2022-09-03T10:45:59.335Z,25.30
2022-09-03T10:48:45.188Z,25.20
2022-09-03T10:51:28.598Z,24.70
2022-09-03T10:54:24.426Z,25.10
2022-09-03T10:57:19.796Z,24.80
2022-09-03T11:00:06.281Z,24.80
2022-09-03T11:02:52.915Z,25.10
2022-09-03T11:05:49.319Z,25.70
2022-09-03T11:08:23.895Z,26.30
2022-09-03T11:10:56.551Z,26.70
2022-09-03T11:14:10.273Z,27.00
2022-09-03T11:16:46.269Z,27.20
2022-09-03T11:19:24.740Z,26.90
2022-09-03T11:21:53.241Z,27.30
2022-09-03T11:24:23.470Z,27.40
2022-09-03T11:27:02.237Z,26.90
2022-09-03T11:29:48.458Z,26.80
2022-09-03T11:32:26.534Z,26.70
2022-09-03T11:34:54.803Z,26.60
2022-09-03T11:37:25.940Z,26.50
2022-09-03T11:40:13.657Z,26.30
2022-09-03T11:42:42.866Z,26.50
2022-09-03T11:45:28.056Z,26.60
2022-09-03T11:47:55.085Z,26.70
2022-09-03T11:50:28.904Z,26.60
2022-09-03T11:53:24.464Z,26.60
2022-09-03T11:55:59.172Z,26.40
2022-09-03T11:58:42.988Z,26.20
2022-09-03T12:01:16.265Z,26.40
2022-09-03T12:04:03.652Z,26.60
2022-09-03T12:06:49.300Z,26.30
2022-09-03T12:09:45.715Z,26.30
2022-09-03T12:12:38.371Z,26.60
2022-09-03T12:15:35.676Z,27.50
2022-09-03T12:18:19.768Z,27.70
2022-09-03T12:20:50.841Z,28.20
2022-09-03T12:23:43.151Z,28.30
2022-09-03T12:26:14.955Z,28.60
2022-09-03T12:28:48.617Z,28.70
2022-09-03T12:31:22.645Z,28.70
2022-09-03T12:34:01.819Z,28.50
2022-09-03T12:36:42.081Z,28.30
2022-09-03T12:40:03.749Z,27.60
2022-09-03T12:42:11.859Z,27.50
2022-09-03T12:44:46.295Z,27.40
2022-09-03T12:47:34.349Z,27.80
2022-09-03T12:50:08.617Z,28.40
2022-09-03T12:52:40.402Z,28.70
2022-09-03T12:55:28.700Z,28.70
2022-09-03T12:58:13.804Z,28.60
2022-09-03T13:00:57.837Z,28.50
2022-09-03T13:03:54.771Z,28.50
2022-09-03T13:06:25.827Z,28.50
2022-09-03T13:09:02.229Z,28.70
2022-09-03T13:11:33.072Z,28.90
2022-09-03T13:14:10.164Z,28.90
2022-09-03T13:16:46.170Z,28.60
2022-09-03T13:19:40.827Z,28.30
2022-09-03T13:22:38.953Z,28.30
2022-09-03T13:25:19.870Z,28.10
2022-09-03T13:28:00.517Z,28.70
2022-09-03T13:31:01.094Z,28.20
2022-09-03T13:33:41.929Z,28.20
2022-09-03T13:36:21.360Z,29.10
2022-09-03T13:39:03.105Z,29.90
2022-09-03T13:42:06.153Z,30.90
2022-09-03T13:44:56.588Z,31.90
2022-09-03T13:48:03.607Z,32.90
2022-09-03T13:50:45.704Z,33.30
2022-09-03T13:53:32.334Z,33.50
2022-09-03T13:56:13.954Z,33.10
2022-09-03T13:58:51.141Z,32.30
2022-09-03T14:01:43.872Z,30.50
2022-09-03T14:04:25.530Z,29.20
2022-09-03T14:07:04.106Z,28.60
2022-09-03T14:09:56.788Z,28.20
2022-09-03T14:13:01.639Z,27.80
2022-09-03T14:15:45.595Z,27.60
2022-09-03T14:18:30.765Z,27.70
2022-09-03T14:21:06.143Z,28.00
2022-09-03T14:23:49.223Z,28.00
2022-09-03T14:26:38.138Z,28.20
2022-09-03T14:29:16.257Z,28.10
2022-09-03T14:32:13.697Z,28.00
2022-09-03T14:34:59.630Z,27.90
2022-09-03T14:37:48.643Z,27.50
2022-09-03T14:40:15.688Z,27.40
2022-09-03T14:42:42.920Z,27.00
2022-09-03T14:45:37.454Z,27.00
2022-09-03T14:48:32.776Z,27.00
2022-09-03T14:51:40.587Z,27.00
2022-09-03T14:54:31.237Z,27.30
2022-09-03T14:57:26.652Z,27.20
2022-09-03T15:00:04.858Z,27.20
2022-09-03T15:02:34.909Z,27.10
2022-09-03T15:05:12.218Z,27.00
2022-09-03T15:07:52.497Z,26.90
2022-09-03T15:10:25.139Z,26.80
2022-09-03T15:12:55.248Z,26.70
2022-09-03T15:15:48.358Z,26.70
2022-09-03T15:18:34.179Z,26.70
2022-09-03T15:21:29.147Z,26.70
2022-09-03T15:24:14.072Z,26.60
2022-09-03T15:27:11.037Z,26.60
2022-09-03T15:29:52.135Z,26.50
2022-09-03T15:32:26.628Z,26.50
2022-09-03T15:35:07.285Z,26.10
2022-09-03T15:37:57.781Z,25.80
2022-09-03T15:40:51.515Z,25.80
2022-09-03T15:43:24.022Z,25.80
2022-09-03T15:45:58.374Z,25.40
2022-09-03T15:48:57.979Z,25.30
2022-09-03T15:51:34.253Z,25.10
2022-09-03T15:54:12.900Z,24.70
2022-09-03T15:56:55.896Z,24.50
2022-09-03T15:59:41.057Z,24.40
2022-09-03T16:02:11.990Z,24.40
2022-09-03T16:05:06.336Z,24.50
2022-09-03T16:07:39.784Z,24.40
2022-09-03T16:10:25.972Z,24.10
2022-09-03T16:13:03.713Z,24.10
2022-09-03T16:15:43.253Z,24.40
2022-09-03T16:18:25.104Z,24.60
2022-09-03T16:21:10.444Z,24.80
2022-09-03T16:23:55.274Z,25.10
2022-09-03T16:26:37.357Z,25.40
2022-09-03T16:29:11.948Z,25.20
2022-09-03T16:32:18.911Z,24.90
2022-09-03T16:35:18.426Z,24.90
2022-09-03T16:38:12.177Z,24.70
2022-09-03T16:40:56.756Z,24.40
2022-09-03T16:43:52.086Z,24.30
2022-09-03T16:46:46.674Z,24.30
2022-09-03T16:49:23.523Z,24.30
2022-09-03T16:52:10.566Z,24.20
2022-09-03T16:55:04.139Z,24.10
2022-09-03T16:58:00.183Z,24.10
2022-09-03T17:00:40.165Z,24.00
2022-09-03T17:03:26.499Z,24.10
2022-09-03T17:06:00.789Z,24.10
2022-09-03T17:08:50.245Z,24.10
2022-09-03T17:11:37.976Z,24.00
2022-09-03T17:14:17.055Z,23.90
2022-09-03T17:17:24.558Z,24.00
2022-09-03T17:20:04.777Z,24.00
2022-09-03T17:22:51.299Z,24.20
2022-09-03T17:25:36.145Z,24.10
2022-09-03T17:28:32.947Z,23.90
2022-09-03T17:31:41.437Z,23.80
2022-09-03T17:34:14.208Z,23.70
2022-09-03T17:37:02.227Z,23.50
2022-09-03T17:39:52.299Z,23.50
2022-09-03T17:42:52.747Z,23.30
2022-09-03T17:45:53.307Z,23.20
2022-09-03T17:48:45.006Z,23.00
2022-09-03T17:51:46.280Z,22.90
2022-09-03T17:54:34.464Z,22.90
2022-09-03T17:57:30.910Z,22.90
2022-09-03T18:00:22.980Z,22.80
2022-09-03T18:02:58.462Z,22.70
2022-09-03T18:05:34.162Z,22.60
2022-09-03T18:08:12.588Z,22.60
2022-09-03T18:11:11.759Z,22.60
2022-09-03T18:14:05.340Z,22.50
2022-09-03T18:16:34.982Z,22.50
2022-09-03T18:19:58.096Z,22.50
2022-09-03T18:22:54.409Z,22.50
2022-09-03T18:25:43.641Z,22.50
2022-09-03T18:28:34.340Z,22.60
2022-09-03T18:31:19.983Z,22.70
2022-09-03T18:34:05.443Z,22.70
2022-09-03T18:36:51.490Z,22.70
2022-09-03T18:39:48.193Z,22.60
2022-09-03T18:42:54.903Z,22.60
2022-09-03T18:49:58.869Z,22.40
2022-09-03T18:52:53.684Z,22.30
2022-09-03T18:55:45.445Z,22.30
2022-09-03T18:58:57.993Z,22.20
2022-09-03T19:01:58.297Z,22.10
2022-09-03T19:05:07.141Z,22.10
2022-09-03T19:08:17.984Z,22.10
2022-09-03T19:11:20.218Z,22.00
2022-09-03T19:14:06.207Z,21.90
2022-09-03T19:17:21.820Z,21.80
2022-09-03T19:20:42.038Z,21.80
2022-09-03T19:23:28.746Z,21.70
2022-09-03T19:26:19.424Z,21.70
2022-09-03T19:29:08.592Z,21.70
2022-09-03T19:31:56.872Z,21.60
2022-09-03T19:34:45.397Z,21.50
2022-09-03T19:37:44.153Z,21.50
2022-09-03T19:40:41.805Z,21.50
2022-09-03T19:43:37.011Z,21.50
2022-09-03T19:46:41.110Z,21.50
2022-09-03T19:49:39.519Z,21.50
2022-09-03T19:52:28.076Z,21.50
2022-09-03T19:55:20.885Z,21.50
2022-09-03T19:58:26.186Z,21.50
2022-09-03T20:01:22.955Z,21.60
2022-09-03T20:04:10.081Z,21.50
2022-09-03T20:06:56.586Z,21.40
2022-09-03T20:09:52.621Z,21.40
2022-09-03T20:12:22.553Z,21.40
2022-09-03T20:14:52.542Z,21.40
2022-09-03T20:17:40.771Z,21.40
2022-09-03T20:20:17.621Z,21.30
2022-09-03T20:23:01.422Z,21.30
2022-09-03T20:26:06.190Z,21.40
2022-09-03T20:28:50.281Z,21.30
2022-09-03T20:31:20.323Z,21.30
2022-09-03T20:34:15.071Z,21.30
2022-09-03T20:36:57.341Z,21.30
2022-09-03T20:39:49.661Z,21.40
2022-09-03T20:42:44.038Z,21.50
2022-09-03T20:45:16.777Z,21.50
2022-09-03T20:48:05.981Z,21.40
2022-09-03T20:50:56.564Z,21.40
2022-09-03T20:53:39.154Z,21.30
2022-09-03T20:56:15.493Z,21.30
2022-09-03T20:58:53.136Z,21.20
2022-09-03T21:01:43.002Z,21.20
2022-09-03T21:04:26.451Z,21.20
2022-09-03T21:07:13.302Z,21.10
2022-09-03T21:09:52.938Z,21.10
2022-09-03T21:12:22.894Z,21.10
2022-09-03T21:15:09.717Z,21.10
2022-09-03T21:18:06.648Z,21.10
2022-09-03T21:20:46.706Z,21.10
2022-09-03T21:23:31.392Z,21.10
2022-09-03T21:26:14.728Z,21.00
2022-09-03T21:28:59.003Z,21.00
2022-09-03T21:31:48.568Z,21.00
2022-09-03T21:34:35.890Z,20.90
2022-09-03T21:37:05.767Z,20.90
2022-09-03T21:39:44.703Z,20.90
2022-09-03T21:42:18.516Z,20.90
2022-09-03T21:45:00.280Z,20.90
2022-09-03T21:47:31.267Z,20.80
2022-09-03T21:50:17.035Z,20.80
2022-09-03T21:52:54.028Z,20.80
2022-09-03T21:55:33.595Z,20.80
2022-09-03T21:58:13.922Z,20.80
2022-09-03T22:00:41.637Z,20.90
2022-09-03T22:03:10.376Z,20.80
2022-09-03T22:06:06.492Z,20.80
2022-09-03T22:09:06.596Z,20.80
2022-09-03T22:11:44.923Z,20.80
2022-09-03T22:14:17.281Z,20.80
2022-09-03T22:17:02.844Z,20.90
2022-09-03T22:19:37.632Z,20.80
2022-09-03T22:22:57.675Z,20.70
2022-09-03T22:25:38.569Z,20.70
2022-09-03T22:28:15.184Z,20.70
2022-09-03T22:30:54.187Z,20.80
2022-09-03T22:33:46.612Z,20.70
2022-09-03T22:36:35.926Z,20.80
2022-09-03T22:39:33.144Z,20.70
2022-09-03T22:42:24.362Z,20.60
2022-09-03T22:45:08.607Z,20.60
2022-09-03T22:48:00.497Z,20.70
2022-09-03T22:50:47.597Z,20.60
2022-09-03T22:53:33.483Z,20.50
2022-09-03T22:56:03.160Z,20.50
2022-09-03T22:58:46.733Z,20.40
2022-09-03T23:01:17.987Z,20.30
2022-09-03T23:03:49.980Z,20.30
2022-09-03T23:06:31.927Z,20.20
2022-09-03T23:09:15.791Z,20.20
2022-09-03T23:11:44.212Z,20.20
2022-09-03T23:14:22.537Z,20.10
2022-09-03T23:16:54.516Z,20.00
2022-09-03T23:19:35.565Z,20.00
2022-09-03T23:22:19.593Z,19.90
2022-09-03T23:25:08.491Z,19.90
2022-09-03T23:27:58.680Z,19.90
2022-09-03T23:30:25.624Z,19.80
2022-09-03T23:32:57.100Z,19.90
2022-09-03T23:35:28.629Z,19.80
2022-09-03T23:38:49.790Z,19.70
2022-09-03T23:41:25.960Z,19.70
2022-09-03T23:44:07.102Z,19.70
2022-09-03T23:46:43.306Z,19.70
2022-09-03T23:49:47.633Z,19.70
2022-09-03T23:52:38.933Z,19.70
2022-09-03T23:55:23.401Z,19.70
2022-09-03T23:58:09.444Z,19.70
